sensor_id;sensor_type;location;lat;lon;timestamp;temperature;humidity
48988;DHT22;34799;51.440;-2.534;2023-06-22T00:01:46;18.50;99.90
48988;DHT22;34799;51.440;-2.534;2023-06-22T00:04:14;18.50;99.90
48988;DHT22;34799;51.440;-2.534;2023-06-22T00:06:41;18.50;99.90
48988;DHT22;34799;51.440;-2.534;2023-06-22T00:09:08;18.50;99.90
48988;DHT22;34799;51.440;-2.534;2023-06-22T00:11:38;18.60;99.90
48988;DHT22;34799;51.440;-2.534;2023-06-22T00:14:06;18.40;99.90
48988;DHT22;34799;51.440;-2.534;2023-06-22T00:16:34;18.40;99.90
48988;DHT22;34799;51.440;-2.534;2023-06-22T00:19:01;18.30;99.90
48988;DHT22;34799;51.440;-2.534;2023-06-22T00:21:29;18.20;99.90
48988;DHT22;34799;51.440;-2.534;2023-06-22T00:23:57;18.30;99.90
48988;DHT22;34799;51.440;-2.534;2023-06-22T00:26:25;18.30;99.90
48988;DHT22;34799;51.440;-2.534;2023-06-22T00:28:52;18.40;99.90
48988;DHT22;34799;51.440;-2.534;2023-06-22T00:31:19;18.30;99.90
48988;DHT22;34799;51.440;-2.534;2023-06-22T00:33:46;18.40;99.90
48988;DHT22;34799;51.440;-2.534;2023-06-22T00:36:13;18.40;99.90
48988;DHT22;34799;51.440;-2.534;2023-06-22T00:38:44;18.30;99.90
48988;DHT22;34799;51.440;-2.534;2023-06-22T00:41:12;18.30;99.90
48988;DHT22;34799;51.440;-2.534;2023-06-22T00:43:39;18.30;99.90
48988;DHT22;34799;51.440;-2.534;2023-06-22T00:46:09;18.20;99.90
48988;DHT22;34799;51.440;-2.534;2023-06-22T00:48:36;18.30;99.90
48988;DHT22;34799;51.440;-2.534;2023-06-22T00:51:03;18.30;99.90
48988;DHT22;34799;51.440;-2.534;2023-06-22T00:53:31;18.30;99.90
48988;DHT22;34799;51.440;-2.534;2023-06-22T00:56:03;18.30;99.90
48988;DHT22;34799;51.440;-2.534;2023-06-22T00:58:31;18.30;99.90
48988;DHT22;34799;51.440;-2.534;2023-06-22T01:00:58;18.30;99.90
48988;DHT22;34799;51.440;-2.534;2023-06-22T01:03:27;18.20;99.90
48988;DHT22;34799;51.440;-2.534;2023-06-22T01:06:04;18.20;99.90
48988;DHT22;34799;51.440;-2.534;2023-06-22T01:08:46;18.20;99.90
48988;DHT22;34799;51.440;-2.534;2023-06-22T01:11:25;18.20;99.90
48988;DHT22;34799;51.440;-2.534;2023-06-22T01:14:15;18.20;99.90
48988;DHT22;34799;51.440;-2.534;2023-06-22T01:16:47;18.20;99.90
48988;DHT22;34799;51.440;-2.534;2023-06-22T01:19:48;18.20;99.90
48988;DHT22;34799;51.440;-2.534;2023-06-22T01:22:21;18.10;99.90
48988;DHT22;34799;51.440;-2.534;2023-06-22T01:25:09;18.10;99.90
48988;DHT22;34799;51.440;-2.534;2023-06-22T01:27:58;18.10;99.90
48988;DHT22;34799;51.440;-2.534;2023-06-22T01:30:30;18.00;99.90
48988;DHT22;34799;51.440;-2.534;2023-06-22T01:32:57;18.00;99.90
48988;DHT22;34799;51.440;-2.534;2023-06-22T01:35:25;18.10;99.90
48988;DHT22;34799;51.440;-2.534;2023-06-22T01:37:53;18.00;99.90
48988;DHT22;34799;51.440;-2.534;2023-06-22T01:40:21;18.00;99.90
48988;DHT22;34799;51.440;-2.534;2023-06-22T01:42:51;18.10;99.90
48988;DHT22;34799;51.440;-2.534;2023-06-22T01:45:19;18.00;99.90
48988;DHT22;34799;51.440;-2.534;2023-06-22T01:47:47;17.90;99.90
48988;DHT22;34799;51.440;-2.534;2023-06-22T01:50:14;17.90;99.90
48988;DHT22;34799;51.440;-2.534;2023-06-22T01:52:42;17.90;99.90
48988;DHT22;34799;51.440;-2.534;2023-06-22T01:55:09;17.90;99.90
48988;DHT22;34799;51.440;-2.534;2023-06-22T01:57:36;17.90;99.90
48988;DHT22;34799;51.440;-2.534;2023-06-22T02:00:09;17.90;99.90
48988;DHT22;34799;51.440;-2.534;2023-06-22T02:03:11;17.90;99.90
48988;DHT22;34799;51.440;-2.534;2023-06-22T02:05:48;17.90;99.90
48988;DHT22;34799;51.440;-2.534;2023-06-22T02:08:22;17.90;99.90
48988;DHT22;34799;51.440;-2.534;2023-06-22T02:10:52;17.90;99.90
48988;DHT22;34799;51.440;-2.534;2023-06-22T02:13:23;17.90;99.90
48988;DHT22;34799;51.440;-2.534;2023-06-22T02:15:50;17.90;99.90
48988;DHT22;34799;51.440;-2.534;2023-06-22T02:18:18;17.90;99.90
48988;DHT22;34799;51.440;-2.534;2023-06-22T02:20:45;18.00;99.90
48988;DHT22;34799;51.440;-2.534;2023-06-22T02:23:12;18.00;99.90
48988;DHT22;34799;51.440;-2.534;2023-06-22T02:25:39;18.00;99.90
48988;DHT22;34799;51.440;-2.534;2023-06-22T02:28:07;18.00;99.90
48988;DHT22;34799;51.440;-2.534;2023-06-22T02:30:34;18.00;99.90
48988;DHT22;34799;51.440;-2.534;2023-06-22T02:33:01;18.10;99.90
48988;DHT22;34799;51.440;-2.534;2023-06-22T02:35:29;18.00;99.90
48988;DHT22;34799;51.440;-2.534;2023-06-22T02:37:59;18.00;99.90
48988;DHT22;34799;51.440;-2.534;2023-06-22T02:40:28;17.90;99.90
48988;DHT22;34799;51.440;-2.534;2023-06-22T02:42:57;17.90;99.90
48988;DHT22;34799;51.440;-2.534;2023-06-22T02:45:30;17.90;99.90
48988;DHT22;34799;51.440;-2.534;2023-06-22T02:47:57;17.80;99.90
48988;DHT22;34799;51.440;-2.534;2023-06-22T02:50:24;17.80;99.90
48988;DHT22;34799;51.440;-2.534;2023-06-22T02:52:53;17.80;99.90
48988;DHT22;34799;51.440;-2.534;2023-06-22T02:55:20;17.80;99.90
48988;DHT22;34799;51.440;-2.534;2023-06-22T02:57:53;17.80;99.90
48988;DHT22;34799;51.440;-2.534;2023-06-22T03:00:21;17.80;99.90
48988;DHT22;34799;51.440;-2.534;2023-06-22T03:02:49;17.70;99.90
48988;DHT22;34799;51.440;-2.534;2023-06-22T03:05:17;17.70;99.90
48988;DHT22;34799;51.440;-2.534;2023-06-22T03:07:45;17.80;99.90
48988;DHT22;34799;51.440;-2.534;2023-06-22T03:10:14;17.70;99.90
48988;DHT22;34799;51.440;-2.534;2023-06-22T03:12:43;17.80;99.90
48988;DHT22;34799;51.440;-2.534;2023-06-22T03:15:12;17.80;99.90
48988;DHT22;34799;51.440;-2.534;2023-06-22T03:17:40;17.80;99.90
48988;DHT22;34799;51.440;-2.534;2023-06-22T03:20:09;17.80;99.90
48988;DHT22;34799;51.440;-2.534;2023-06-22T03:22:40;17.80;99.90
48988;DHT22;34799;51.440;-2.534;2023-06-22T03:25:10;17.70;99.90
48988;DHT22;34799;51.440;-2.534;2023-06-22T03:27:44;17.60;99.90
48988;DHT22;34799;51.440;-2.534;2023-06-22T03:30:12;17.60;99.90
48988;DHT22;34799;51.440;-2.534;2023-06-22T03:32:39;17.60;99.90
48988;DHT22;34799;51.440;-2.534;2023-06-22T03:35:06;17.60;99.90
48988;DHT22;34799;51.440;-2.534;2023-06-22T03:37:36;17.60;99.90
48988;DHT22;34799;51.440;-2.534;2023-06-22T03:40:06;17.60;99.90
48988;DHT22;34799;51.440;-2.534;2023-06-22T03:42:34;17.60;99.90
48988;DHT22;34799;51.440;-2.534;2023-06-22T03:45:05;17.60;99.90
48988;DHT22;34799;51.440;-2.534;2023-06-22T03:47:33;17.70;99.90
48988;DHT22;34799;51.440;-2.534;2023-06-22T03:50:02;17.70;99.90
48988;DHT22;34799;51.440;-2.534;2023-06-22T03:52:32;17.70;99.90
48988;DHT22;34799;51.440;-2.534;2023-06-22T03:54:59;17.60;99.90
48988;DHT22;34799;51.440;-2.534;2023-06-22T03:57:26;17.60;99.90
48988;DHT22;34799;51.440;-2.534;2023-06-22T03:59:56;17.60;99.90
48988;DHT22;34799;51.440;-2.534;2023-06-22T04:02:25;17.60;99.90
48988;DHT22;34799;51.440;-2.534;2023-06-22T04:04:53;17.50;99.90
48988;DHT22;34799;51.440;-2.534;2023-06-22T04:07:20;17.50;99.90
48988;DHT22;34799;51.440;-2.534;2023-06-22T04:09:47;17.50;99.90
48988;DHT22;34799;51.440;-2.534;2023-06-22T04:12:14;17.50;99.90
48988;DHT22;34799;51.440;-2.534;2023-06-22T04:14:41;17.50;99.90
48988;DHT22;34799;51.440;-2.534;2023-06-22T04:17:09;17.50;99.90
48988;DHT22;34799;51.440;-2.534;2023-06-22T04:19:36;17.60;99.90
48988;DHT22;34799;51.440;-2.534;2023-06-22T04:22:03;17.50;99.90
48988;DHT22;34799;51.440;-2.534;2023-06-22T04:24:30;17.50;99.90
48988;DHT22;34799;51.440;-2.534;2023-06-22T04:26:57;17.50;99.90
48988;DHT22;34799;51.440;-2.534;2023-06-22T04:29:27;17.50;99.90
48988;DHT22;34799;51.440;-2.534;2023-06-22T04:31:58;17.50;99.90
48988;DHT22;34799;51.440;-2.534;2023-06-22T04:34:29;17.40;99.90
48988;DHT22;34799;51.440;-2.534;2023-06-22T04:36:56;17.50;99.90
48988;DHT22;34799;51.440;-2.534;2023-06-22T04:39:23;17.50;99.90
48988;DHT22;34799;51.440;-2.534;2023-06-22T04:41:50;17.50;99.90
48988;DHT22;34799;51.440;-2.534;2023-06-22T04:44:18;17.60;99.90
48988;DHT22;34799;51.440;-2.534;2023-06-22T04:46:59;17.50;99.90
48988;DHT22;34799;51.440;-2.534;2023-06-22T04:49:36;17.50;99.90
48988;DHT22;34799;51.440;-2.534;2023-06-22T04:52:05;17.50;99.90
48988;DHT22;34799;51.440;-2.534;2023-06-22T04:54:33;17.40;99.90
48988;DHT22;34799;51.440;-2.534;2023-06-22T04:57:01;17.40;99.90
48988;DHT22;34799;51.440;-2.534;2023-06-22T04:59:31;17.30;99.90
48988;DHT22;34799;51.440;-2.534;2023-06-22T05:01:59;17.40;99.90
48988;DHT22;34799;51.440;-2.534;2023-06-22T05:04:28;17.40;99.90
48988;DHT22;34799;51.440;-2.534;2023-06-22T05:07:00;17.40;99.90
48988;DHT22;34799;51.440;-2.534;2023-06-22T05:09:28;17.30;99.90
48988;DHT22;34799;51.440;-2.534;2023-06-22T05:11:55;17.30;99.90
48988;DHT22;34799;51.440;-2.534;2023-06-22T05:14:30;17.30;99.90
48988;DHT22;34799;51.440;-2.534;2023-06-22T05:16:58;17.30;99.90
48988;DHT22;34799;51.440;-2.534;2023-06-22T05:19:26;17.30;99.90
48988;DHT22;34799;51.440;-2.534;2023-06-22T05:22:00;17.40;99.90
48988;DHT22;34799;51.440;-2.534;2023-06-22T05:24:27;17.40;99.90
48988;DHT22;34799;51.440;-2.534;2023-06-22T05:26:54;17.50;99.90
48988;DHT22;34799;51.440;-2.534;2023-06-22T05:29:22;17.50;99.90
48988;DHT22;34799;51.440;-2.534;2023-06-22T05:31:49;17.50;99.90
48988;DHT22;34799;51.440;-2.534;2023-06-22T05:34:17;17.60;99.90
48988;DHT22;34799;51.440;-2.534;2023-06-22T05:36:44;17.60;99.90
48988;DHT22;34799;51.440;-2.534;2023-06-22T05:39:12;17.70;99.90
48988;DHT22;34799;51.440;-2.534;2023-06-22T05:41:40;17.70;99.90
48988;DHT22;34799;51.440;-2.534;2023-06-22T05:44:08;17.70;99.90
48988;DHT22;34799;51.440;-2.534;2023-06-22T05:46:35;17.80;99.90
48988;DHT22;34799;51.440;-2.534;2023-06-22T05:49:02;17.80;99.90
48988;DHT22;34799;51.440;-2.534;2023-06-22T05:51:30;17.90;99.90
48988;DHT22;34799;51.440;-2.534;2023-06-22T05:53:58;17.90;99.90
48988;DHT22;34799;51.440;-2.534;2023-06-22T05:56:25;18.00;99.90
48988;DHT22;34799;51.440;-2.534;2023-06-22T05:58:53;18.00;99.90
48988;DHT22;34799;51.440;-2.534;2023-06-22T06:01:20;18.00;99.90
48988;DHT22;34799;51.440;-2.534;2023-06-22T06:03:47;18.10;99.90
48988;DHT22;34799;51.440;-2.534;2023-06-22T06:06:17;18.10;99.90
48988;DHT22;34799;51.440;-2.534;2023-06-22T06:08:44;18.10;99.90
48988;DHT22;34799;51.440;-2.534;2023-06-22T06:11:11;18.20;99.90
48988;DHT22;34799;51.440;-2.534;2023-06-22T06:13:38;18.30;99.90
48988;DHT22;34799;51.440;-2.534;2023-06-22T06:16:05;18.40;99.90
48988;DHT22;34799;51.440;-2.534;2023-06-22T06:18:32;18.50;99.90
48988;DHT22;34799;51.440;-2.534;2023-06-22T06:20:59;18.50;99.90
48988;DHT22;34799;51.440;-2.534;2023-06-22T06:23:26;18.60;99.90
48988;DHT22;34799;51.440;-2.534;2023-06-22T06:25:53;18.60;99.90
48988;DHT22;34799;51.440;-2.534;2023-06-22T06:28:21;18.70;99.90
48988;DHT22;34799;51.440;-2.534;2023-06-22T06:30:51;18.70;99.90
48988;DHT22;34799;51.440;-2.534;2023-06-22T06:33:19;18.80;99.90
48988;DHT22;34799;51.440;-2.534;2023-06-22T06:35:48;18.80;99.90
48988;DHT22;34799;51.440;-2.534;2023-06-22T06:38:15;18.80;99.90
48988;DHT22;34799;51.440;-2.534;2023-06-22T06:40:42;18.80;99.90
48988;DHT22;34799;51.440;-2.534;2023-06-22T06:43:11;18.80;99.90
48988;DHT22;34799;51.440;-2.534;2023-06-22T06:45:38;18.80;99.90
48988;DHT22;34799;51.440;-2.534;2023-06-22T06:48:05;18.80;99.90
48988;DHT22;34799;51.440;-2.534;2023-06-22T06:50:34;18.70;99.90
48988;DHT22;34799;51.440;-2.534;2023-06-22T06:53:02;18.70;99.90
48988;DHT22;34799;51.440;-2.534;2023-06-22T06:55:29;18.80;99.90
48988;DHT22;34799;51.440;-2.534;2023-06-22T06:57:59;18.80;99.90
48988;DHT22;34799;51.440;-2.534;2023-06-22T07:00:26;18.90;99.90
48988;DHT22;34799;51.440;-2.534;2023-06-22T07:02:54;18.90;99.90
48988;DHT22;34799;51.440;-2.534;2023-06-22T07:05:21;19.00;99.90
48988;DHT22;34799;51.440;-2.534;2023-06-22T07:07:48;19.00;99.90
48988;DHT22;34799;51.440;-2.534;2023-06-22T07:10:15;19.10;99.90
48988;DHT22;34799;51.440;-2.534;2023-06-22T07:12:43;19.20;99.90
48988;DHT22;34799;51.440;-2.534;2023-06-22T07:15:10;19.20;99.90
48988;DHT22;34799;51.440;-2.534;2023-06-22T07:17:39;19.30;99.90
48988;DHT22;34799;51.440;-2.534;2023-06-22T07:20:10;19.30;99.90
48988;DHT22;34799;51.440;-2.534;2023-06-22T07:22:40;19.40;99.90
48988;DHT22;34799;51.440;-2.534;2023-06-22T07:25:09;19.50;99.90
48988;DHT22;34799;51.440;-2.534;2023-06-22T07:27:38;19.50;99.90
48988;DHT22;34799;51.440;-2.534;2023-06-22T07:30:10;19.50;99.90
48988;DHT22;34799;51.440;-2.534;2023-06-22T07:32:39;19.50;99.90
48988;DHT22;34799;51.440;-2.534;2023-06-22T07:35:07;19.60;99.90
48988;DHT22;34799;51.440;-2.534;2023-06-22T07:37:34;19.60;99.90
48988;DHT22;34799;51.440;-2.534;2023-06-22T07:40:02;19.70;99.90
48988;DHT22;34799;51.440;-2.534;2023-06-22T07:42:33;19.70;99.90
48988;DHT22;34799;51.440;-2.534;2023-06-22T07:45:03;19.70;99.90
48988;DHT22;34799;51.440;-2.534;2023-06-22T07:47:30;19.90;99.90
48988;DHT22;34799;51.440;-2.534;2023-06-22T07:50:01;19.90;99.90
48988;DHT22;34799;51.440;-2.534;2023-06-22T07:52:29;19.80;99.90
48988;DHT22;34799;51.440;-2.534;2023-06-22T07:54:56;19.80;99.90
48988;DHT22;34799;51.440;-2.534;2023-06-22T07:57:23;19.80;99.90
48988;DHT22;34799;51.440;-2.534;2023-06-22T08:00:02;19.90;99.90
48988;DHT22;34799;51.440;-2.534;2023-06-22T08:02:40;20.00;99.90
48988;DHT22;34799;51.440;-2.534;2023-06-22T08:05:09;20.10;99.90
48988;DHT22;34799;51.440;-2.534;2023-06-22T08:07:45;20.10;99.90
48988;DHT22;34799;51.440;-2.534;2023-06-22T08:10:14;20.20;99.90
48988;DHT22;34799;51.440;-2.534;2023-06-22T08:12:41;20.30;99.90
48988;DHT22;34799;51.440;-2.534;2023-06-22T08:15:09;20.30;99.90
48988;DHT22;34799;51.440;-2.534;2023-06-22T08:17:38;20.30;99.90
48988;DHT22;34799;51.440;-2.534;2023-06-22T08:20:07;20.30;99.90
48988;DHT22;34799;51.440;-2.534;2023-06-22T08:22:41;20.40;99.90
48988;DHT22;34799;51.440;-2.534;2023-06-22T08:25:09;20.50;99.90
48988;DHT22;34799;51.440;-2.534;2023-06-22T08:27:36;20.70;99.90
48988;DHT22;34799;51.440;-2.534;2023-06-22T08:30:04;20.80;99.90
48988;DHT22;34799;51.440;-2.534;2023-06-22T08:32:31;20.90;99.90
48988;DHT22;34799;51.440;-2.534;2023-06-22T08:34:59;20.90;99.90
48988;DHT22;34799;51.440;-2.534;2023-06-22T08:37:26;20.90;99.90
48988;DHT22;34799;51.440;-2.534;2023-06-22T08:40:07;20.90;99.90
48988;DHT22;34799;51.440;-2.534;2023-06-22T08:42:36;20.90;99.90
48988;DHT22;34799;51.440;-2.534;2023-06-22T08:45:04;20.80;99.90
48988;DHT22;34799;51.440;-2.534;2023-06-22T08:47:31;20.80;99.90
48988;DHT22;34799;51.440;-2.534;2023-06-22T08:49:59;21.00;99.90
48988;DHT22;34799;51.440;-2.534;2023-06-22T08:52:26;21.10;99.90
48988;DHT22;34799;51.440;-2.534;2023-06-22T08:54:53;21.20;99.90
48988;DHT22;34799;51.440;-2.534;2023-06-22T08:57:21;21.30;99.90
48988;DHT22;34799;51.440;-2.534;2023-06-22T08:59:48;21.40;99.90
48988;DHT22;34799;51.440;-2.534;2023-06-22T09:02:15;21.50;99.90
48988;DHT22;34799;51.440;-2.534;2023-06-22T09:04:48;21.50;99.90
48988;DHT22;34799;51.440;-2.534;2023-06-22T09:07:16;21.60;99.90
48988;DHT22;34799;51.440;-2.534;2023-06-22T09:09:49;21.70;99.90
48988;DHT22;34799;51.440;-2.534;2023-06-22T09:12:17;21.80;99.90
48988;DHT22;34799;51.440;-2.534;2023-06-22T09:14:46;21.90;99.90
48988;DHT22;34799;51.440;-2.534;2023-06-22T09:17:14;21.90;99.90
48988;DHT22;34799;51.440;-2.534;2023-06-22T09:19:41;21.90;99.90
48988;DHT22;34799;51.440;-2.534;2023-06-22T09:22:08;21.90;99.90
48988;DHT22;34799;51.440;-2.534;2023-06-22T09:24:35;21.90;99.90
48988;DHT22;34799;51.440;-2.534;2023-06-22T09:27:02;21.90;99.90
48988;DHT22;34799;51.440;-2.534;2023-06-22T09:29:31;22.00;99.90
48988;DHT22;34799;51.440;-2.534;2023-06-22T09:32:02;22.10;99.90
48988;DHT22;34799;51.440;-2.534;2023-06-22T09:34:30;22.20;99.90
48988;DHT22;34799;51.440;-2.534;2023-06-22T09:36:58;22.30;99.90
48988;DHT22;34799;51.440;-2.534;2023-06-22T09:39:28;22.50;99.90
48988;DHT22;34799;51.440;-2.534;2023-06-22T09:41:59;22.60;99.90
48988;DHT22;34799;51.440;-2.534;2023-06-22T09:44:26;22.70;99.90
48988;DHT22;34799;51.440;-2.534;2023-06-22T09:46:54;22.80;99.90
48988;DHT22;34799;51.440;-2.534;2023-06-22T09:49:21;22.80;99.90
48988;DHT22;34799;51.440;-2.534;2023-06-22T09:51:53;22.60;99.90
48988;DHT22;34799;51.440;-2.534;2023-06-22T09:54:20;22.60;99.90
48988;DHT22;34799;51.440;-2.534;2023-06-22T09:56:47;22.60;99.90
48988;DHT22;34799;51.440;-2.534;2023-06-22T09:59:14;22.80;99.90
48988;DHT22;34799;51.440;-2.534;2023-06-22T10:01:44;22.80;99.90
48988;DHT22;34799;51.440;-2.534;2023-06-22T10:04:11;22.70;99.90
48988;DHT22;34799;51.440;-2.534;2023-06-22T10:06:38;22.80;99.90
48988;DHT22;34799;51.440;-2.534;2023-06-22T10:09:07;22.90;99.90
48988;DHT22;34799;51.440;-2.534;2023-06-22T10:11:37;23.10;99.90
48988;DHT22;34799;51.440;-2.534;2023-06-22T10:14:04;23.10;99.90
48988;DHT22;34799;51.440;-2.534;2023-06-22T10:16:32;23.20;99.90
48988;DHT22;34799;51.440;-2.534;2023-06-22T10:18:59;23.30;99.90
48988;DHT22;34799;51.440;-2.534;2023-06-22T10:21:26;23.40;99.90
48988;DHT22;34799;51.440;-2.534;2023-06-22T10:23:55;23.40;99.90
48988;DHT22;34799;51.440;-2.534;2023-06-22T10:26:22;23.40;99.90
48988;DHT22;34799;51.440;-2.534;2023-06-22T10:28:50;23.40;99.90
48988;DHT22;34799;51.440;-2.534;2023-06-22T10:31:20;23.60;99.90
48988;DHT22;34799;51.440;-2.534;2023-06-22T10:33:48;23.90;99.90
48988;DHT22;34799;51.440;-2.534;2023-06-22T10:36:16;24.00;99.90
48988;DHT22;34799;51.440;-2.534;2023-06-22T10:38:43;23.90;99.90
48988;DHT22;34799;51.440;-2.534;2023-06-22T10:41:10;23.90;99.90
48988;DHT22;34799;51.440;-2.534;2023-06-22T10:43:37;24.00;99.90
48988;DHT22;34799;51.440;-2.534;2023-06-22T10:46:04;24.10;99.90
48988;DHT22;34799;51.440;-2.534;2023-06-22T10:48:31;24.30;99.90
48988;DHT22;34799;51.440;-2.534;2023-06-22T10:50:58;24.40;99.90
48988;DHT22;34799;51.440;-2.534;2023-06-22T10:53:25;24.40;99.90
48988;DHT22;34799;51.440;-2.534;2023-06-22T10:55:52;24.50;99.90
48988;DHT22;34799;51.440;-2.534;2023-06-22T10:58:22;23.30;99.90
48988;DHT22;34799;51.440;-2.534;2023-06-22T11:00:49;24.10;99.90
48988;DHT22;34799;51.440;-2.534;2023-06-22T11:03:16;23.90;99.90
48988;DHT22;34799;51.440;-2.534;2023-06-22T11:05:43;23.90;99.90
48988;DHT22;34799;51.440;-2.534;2023-06-22T11:08:10;23.90;99.90
48988;DHT22;34799;51.440;-2.534;2023-06-22T11:10:37;24.00;99.90
48988;DHT22;34799;51.440;-2.534;2023-06-22T11:13:04;24.10;99.90
48988;DHT22;34799;51.440;-2.534;2023-06-22T11:15:34;24.20;99.90
48988;DHT22;34799;51.440;-2.534;2023-06-22T11:18:01;24.20;99.90
48988;DHT22;34799;51.440;-2.534;2023-06-22T11:20:29;24.40;99.90
48988;DHT22;34799;51.440;-2.534;2023-06-22T11:22:56;24.60;99.90
48988;DHT22;34799;51.440;-2.534;2023-06-22T11:25:23;24.90;99.90
48988;DHT22;34799;51.440;-2.534;2023-06-22T11:27:51;24.50;99.90
48988;DHT22;34799;51.440;-2.534;2023-06-22T11:30:20;25.00;99.90
48988;DHT22;34799;51.440;-2.534;2023-06-22T11:32:47;24.80;99.90
48988;DHT22;34799;51.440;-2.534;2023-06-22T11:35:14;24.60;99.90
48988;DHT22;34799;51.440;-2.534;2023-06-22T11:37:41;24.50;99.90
48988;DHT22;34799;51.440;-2.534;2023-06-22T11:40:10;24.70;99.90
48988;DHT22;34799;51.440;-2.534;2023-06-22T11:42:39;24.80;99.90
48988;DHT22;34799;51.440;-2.534;2023-06-22T11:45:07;24.80;99.90
48988;DHT22;34799;51.440;-2.534;2023-06-22T11:47:34;24.90;99.90
48988;DHT22;34799;51.440;-2.534;2023-06-22T11:50:01;24.80;99.90
48988;DHT22;34799;51.440;-2.534;2023-06-22T11:52:28;24.70;99.90
48988;DHT22;34799;51.440;-2.534;2023-06-22T11:54:55;24.60;99.90
48988;DHT22;34799;51.440;-2.534;2023-06-22T11:57:22;24.60;99.90
48988;DHT22;34799;51.440;-2.534;2023-06-22T11:59:49;24.60;99.90
48988;DHT22;34799;51.440;-2.534;2023-06-22T12:02:16;24.50;99.90
48988;DHT22;34799;51.440;-2.534;2023-06-22T12:04:43;24.50;99.90
48988;DHT22;34799;51.440;-2.534;2023-06-22T12:07:10;24.50;99.90
48988;DHT22;34799;51.440;-2.534;2023-06-22T12:09:37;24.60;99.90
48988;DHT22;34799;51.440;-2.534;2023-06-22T12:12:05;24.90;99.90
48988;DHT22;34799;51.440;-2.534;2023-06-22T12:14:34;25.10;99.90
48988;DHT22;34799;51.440;-2.534;2023-06-22T12:17:02;25.30;99.60
48988;DHT22;34799;51.440;-2.534;2023-06-22T12:19:29;25.20;99.70
48988;DHT22;34799;51.440;-2.534;2023-06-22T12:21:56;25.20;99.60
48988;DHT22;34799;51.440;-2.534;2023-06-22T12:24:23;25.40;99.70
48988;DHT22;34799;51.440;-2.534;2023-06-22T12:26:50;25.60;99.40
48988;DHT22;34799;51.440;-2.534;2023-06-22T12:29:17;25.90;99.30
48988;DHT22;34799;51.440;-2.534;2023-06-22T12:31:44;26.10;99.10
48988;DHT22;34799;51.440;-2.534;2023-06-22T12:34:11;26.30;99.20
48988;DHT22;34799;51.440;-2.534;2023-06-22T12:36:38;26.20;98.70
48988;DHT22;34799;51.440;-2.534;2023-06-22T12:39:06;26.10;99.30
48988;DHT22;34799;51.440;-2.534;2023-06-22T12:41:34;26.30;98.80
48988;DHT22;34799;51.440;-2.534;2023-06-22T12:44:02;26.50;98.50
48988;DHT22;34799;51.440;-2.534;2023-06-22T12:46:29;26.60;98.60
48988;DHT22;34799;51.440;-2.534;2023-06-22T12:49:04;26.70;99.30
48988;DHT22;34799;51.440;-2.534;2023-06-22T12:51:32;26.80;99.30
48988;DHT22;34799;51.440;-2.534;2023-06-22T12:53:59;27.10;98.60
48988;DHT22;34799;51.440;-2.534;2023-06-22T12:56:26;27.00;99.10
48988;DHT22;34799;51.440;-2.534;2023-06-22T12:58:53;26.70;99.70
48988;DHT22;34799;51.440;-2.534;2023-06-22T13:01:20;26.10;99.90
48988;DHT22;34799;51.440;-2.534;2023-06-22T13:03:47;25.70;99.90
48988;DHT22;34799;51.440;-2.534;2023-06-22T13:06:14;25.40;99.90
48988;DHT22;34799;51.440;-2.534;2023-06-22T13:08:41;25.20;99.90
48988;DHT22;34799;51.440;-2.534;2023-06-22T13:11:11;25.00;99.90
48988;DHT22;34799;51.440;-2.534;2023-06-22T13:13:39;24.90;99.90
48988;DHT22;34799;51.440;-2.534;2023-06-22T13:16:08;24.90;99.90
48988;DHT22;34799;51.440;-2.534;2023-06-22T13:18:36;25.20;99.90
48988;DHT22;34799;51.440;-2.534;2023-06-22T13:21:04;25.60;99.90
48988;DHT22;34799;51.440;-2.534;2023-06-22T13:23:31;25.90;99.90
48988;DHT22;34799;51.440;-2.534;2023-06-22T13:25:58;26.20;99.90
48988;DHT22;34799;51.440;-2.534;2023-06-22T13:28:25;26.40;99.90
48988;DHT22;34799;51.440;-2.534;2023-06-22T13:30:53;26.60;99.90
48988;DHT22;34799;51.440;-2.534;2023-06-22T13:33:21;26.80;99.90
48988;DHT22;34799;51.440;-2.534;2023-06-22T13:35:48;26.80;99.30
48988;DHT22;34799;51.440;-2.534;2023-06-22T13:38:15;26.70;99.50
48988;DHT22;34799;51.440;-2.534;2023-06-22T13:40:42;26.90;99.50
48988;DHT22;34799;51.440;-2.534;2023-06-22T13:43:09;27.10;98.90
48988;DHT22;34799;51.440;-2.534;2023-06-22T13:45:36;26.90;99.50
48988;DHT22;34799;51.440;-2.534;2023-06-22T13:48:03;26.70;99.50
48988;DHT22;34799;51.440;-2.534;2023-06-22T13:50:31;26.60;98.60
48988;DHT22;34799;51.440;-2.534;2023-06-22T13:52:58;26.50;99.00
48988;DHT22;34799;51.440;-2.534;2023-06-22T13:55:25;26.50;98.90
48988;DHT22;34799;51.440;-2.534;2023-06-22T13:57:55;26.70;98.80
48988;DHT22;34799;51.440;-2.534;2023-06-22T14:00:22;26.80;98.60
48988;DHT22;34799;51.440;-2.534;2023-06-22T14:02:50;26.90;98.80
48988;DHT22;34799;51.440;-2.534;2023-06-22T14:05:18;27.00;98.20
48988;DHT22;34799;51.440;-2.534;2023-06-22T14:07:45;27.10;98.50
48988;DHT22;34799;51.440;-2.534;2023-06-22T14:10:13;27.20;98.20
48988;DHT22;34799;51.440;-2.534;2023-06-22T14:12:40;27.40;97.90
48988;DHT22;34799;51.440;-2.534;2023-06-22T14:15:07;27.50;97.60
48988;DHT22;34799;51.440;-2.534;2023-06-22T14:17:35;27.40;97.50
48988;DHT22;34799;51.440;-2.534;2023-06-22T14:20:02;27.30;97.70
48988;DHT22;34799;51.440;-2.534;2023-06-22T14:22:30;27.40;97.00
48988;DHT22;34799;51.440;-2.534;2023-06-22T14:24:57;27.30;97.30
48988;DHT22;34799;51.440;-2.534;2023-06-22T14:27:27;27.50;97.90
48988;DHT22;34799;51.440;-2.534;2023-06-22T14:29:54;27.50;97.50
48988;DHT22;34799;51.440;-2.534;2023-06-22T14:32:21;27.70;97.40
48988;DHT22;34799;51.440;-2.534;2023-06-22T14:34:48;27.70;97.30
48988;DHT22;34799;51.440;-2.534;2023-06-22T14:37:16;28.00;97.10
48988;DHT22;34799;51.440;-2.534;2023-06-22T14:39:43;28.00;96.90
48988;DHT22;34799;51.440;-2.534;2023-06-22T14:42:10;28.00;97.10
48988;DHT22;34799;51.440;-2.534;2023-06-22T14:44:37;28.00;96.60
48988;DHT22;34799;51.440;-2.534;2023-06-22T14:47:05;27.80;96.70
48988;DHT22;34799;51.440;-2.534;2023-06-22T14:49:32;27.90;96.90
48988;DHT22;34799;51.440;-2.534;2023-06-22T14:51:59;28.00;96.40
48988;DHT22;34799;51.440;-2.534;2023-06-22T14:54:26;28.00;95.90
48988;DHT22;34799;51.440;-2.534;2023-06-22T14:56:53;27.80;96.10
48988;DHT22;34799;51.440;-2.534;2023-06-22T14:59:20;27.80;96.60
48988;DHT22;34799;51.440;-2.534;2023-06-22T15:01:47;28.00;96.30
48988;DHT22;34799;51.440;-2.534;2023-06-22T15:04:14;28.10;95.90
48988;DHT22;34799;51.440;-2.534;2023-06-22T15:06:42;28.20;95.70
48988;DHT22;34799;51.440;-2.534;2023-06-22T15:09:11;28.20;95.40
48988;DHT22;34799;51.440;-2.534;2023-06-22T15:11:39;28.30;95.40
48988;DHT22;34799;51.440;-2.534;2023-06-22T15:14:07;28.30;95.20
48988;DHT22;34799;51.440;-2.534;2023-06-22T15:16:35;28.10;95.20
48988;DHT22;34799;51.440;-2.534;2023-06-22T15:19:02;28.30;95.70
48988;DHT22;34799;51.440;-2.534;2023-06-22T15:21:29;28.50;95.50
48988;DHT22;34799;51.440;-2.534;2023-06-22T15:23:56;28.50;94.80